Weather at Birmingham International Airport

Public forecast

Using degrees Celsius for public forecast. Weather courtesy of forecast.io.

Current aviation weather report (METAR) for Birmingham International Airport

Report is more than 6 hours old.

2022/11/14 15:20 (retrieved 2 years ago)

EGBB 141520Z 15005KT 6000 BKN005 12/11 Q1005

Aviation forecast (TAF) for Birmingham International Airport

Forecast is more than 12 hours old.

2023/02/22 18:00 (retrieved 1 year ago)

TAF EGBB 221657Z 2218/2318 30010KT 9999 SCT030 PROB30 TEMPO 2218/2221 6000 SHRA BKN014 BECMG 2220/2223 02010KT TEMPO 2221/2302 6000 SHRA RA BKN014 PROB30 TEMPO 2302/2306 6000 SHRA RA BKN009